createdAt,value
2022-09-30T00:01:03.894Z,94.81
2022-09-30T00:03:31.562Z,93.98
2022-09-30T00:05:59.241Z,94.11
2022-09-30T00:08:26.813Z,94.33
2022-09-30T00:11:01.777Z,94.64
2022-09-30T00:13:29.248Z,94.38
2022-09-30T00:15:56.760Z,94.19
2022-09-30T00:18:25.589Z,94.22
2022-09-30T00:20:54.061Z,94.93
2022-09-30T00:23:21.760Z,94.26
2022-09-30T00:25:49.294Z,94.45
2022-09-30T00:28:16.774Z,94.31
2022-09-30T00:30:44.244Z,93.18
2022-09-30T00:33:11.691Z,92.83
2022-09-30T00:35:40.571Z,93.24
2022-09-30T00:38:08.069Z,93.20
2022-09-30T00:40:35.580Z,92.87
2022-09-30T00:43:03.047Z,92.68
2022-09-30T00:45:31.529Z,92.08
2022-09-30T00:48:04.856Z,92.19
2022-09-30T00:50:36.722Z,92.91
2022-09-30T00:53:11.382Z,93.05
2022-09-30T00:55:52.751Z,92.62
2022-09-30T00:58:26.284Z,93.11
2022-09-30T01:00:53.820Z,92.09
2022-09-30T01:03:23.125Z,92.33
2022-09-30T01:05:52.028Z,92.82
2022-09-30T01:08:21.986Z,92.95
2022-09-30T01:10:49.437Z,93.07
2022-09-30T01:13:19.143Z,93.12
2022-09-30T01:15:59.809Z,93.29
2022-09-30T01:18:31.905Z,92.82
2022-09-30T01:21:50.273Z,93.39
2022-09-30T01:24:30.547Z,93.26
2022-09-30T01:27:20.534Z,93.63
2022-09-30T01:30:10.787Z,92.96
2022-09-30T01:33:00.876Z,93.17
2022-09-30T01:35:37.547Z,93.31
2022-09-30T01:38:13.240Z,93.84
2022-09-30T01:40:44.819Z,93.35
2022-09-30T01:43:14.931Z,93.43
2022-09-30T01:45:44.433Z,93.89
2022-09-30T01:48:19.780Z,94.32
2022-09-30T01:50:50.769Z,94.21
2022-09-30T01:53:24.764Z,94.53
2022-09-30T01:55:54.962Z,94.75
2022-09-30T01:58:28.795Z,94.31
2022-09-30T02:00:59.459Z,94.44
2022-09-30T02:03:31.142Z,94.98
2022-09-30T02:06:03.216Z,94.06
2022-09-30T02:08:34.341Z,94.90
2022-09-30T02:11:06.066Z,94.39
2022-09-30T02:13:35.908Z,94.79
2022-09-30T02:16:12.716Z,94.29
2022-09-30T02:18:44.740Z,95.05
2022-09-30T02:21:13.595Z,94.25
2022-09-30T02:23:43.775Z,94.22
2022-09-30T02:26:14.517Z,94.33
2022-09-30T02:28:43.476Z,94.22
2022-09-30T02:31:12.799Z,94.36
2022-09-30T02:33:44.986Z,93.45
2022-09-30T02:36:17.408Z,94.34
2022-09-30T02:38:46.274Z,94.52
2022-09-30T02:41:16.368Z,93.88
2022-09-30T02:43:43.935Z,94.36
2022-09-30T02:46:16.234Z,93.90
2022-09-30T02:48:48.568Z,94.60
2022-09-30T02:51:19.219Z,94.11
2022-09-30T02:53:52.560Z,93.83
2022-09-30T02:56:25.834Z,93.82
2022-09-30T02:58:53.973Z,93.94
2022-09-30T03:01:21.561Z,94.81
2022-09-30T03:03:51.746Z,94.84
2022-09-30T03:06:19.473Z,94.52
2022-09-30T03:08:47.189Z,94.10
2022-09-30T03:11:16.621Z,94.48
2022-09-30T03:14:20.447Z,93.68
2022-09-30T03:17:19.577Z,93.64
2022-09-30T03:20:04.438Z,94.28
2022-09-30T03:22:47.054Z,93.60
2022-09-30T03:25:22.393Z,94.18
2022-09-30T03:27:57.045Z,94.03
2022-09-30T03:30:26.917Z,94.21
2022-09-30T03:33:04.567Z,94.30
2022-09-30T03:35:41.405Z,94.39
2022-09-30T03:38:13.733Z,94.56
2022-09-30T03:40:44.761Z,94.72
2022-09-30T03:43:20.014Z,94.03
2022-09-30T03:45:52.200Z,94.41
2022-09-30T03:48:20.432Z,94.61
2022-09-30T03:50:49.371Z,95.03
2022-09-30T03:53:17.167Z,94.69
2022-09-30T03:55:47.682Z,94.71
2022-09-30T03:58:15.624Z,94.55
2022-09-30T04:00:48.532Z,94.49
2022-09-30T04:03:16.586Z,93.96
2022-09-30T04:05:44.429Z,94.48
2022-09-30T04:08:13.272Z,94.39
2022-09-30T04:10:41.999Z,94.75
2022-09-30T04:13:09.849Z,94.19
2022-09-30T04:15:37.717Z,93.98
2022-09-30T04:18:06.061Z,94.44
2022-09-30T04:20:33.799Z,93.77
2022-09-30T04:23:01.828Z,93.17
2022-09-30T04:25:30.838Z,93.36
2022-09-30T04:27:58.560Z,93.47
2022-09-30T04:30:30.144Z,92.97
2022-09-30T04:33:00.290Z,93.16
2022-09-30T04:35:30.049Z,93.90
2022-09-30T04:37:57.607Z,93.65
2022-09-30T04:40:25.369Z,93.78
2022-09-30T04:42:58.175Z,93.28
2022-09-30T04:45:25.928Z,93.90
2022-09-30T04:47:53.492Z,93.32
2022-09-30T04:50:21.178Z,93.16
2022-09-30T04:52:48.849Z,93.89
2022-09-30T04:55:16.497Z,93.74
2022-09-30T04:57:45.317Z,93.52
2022-09-30T05:00:14.467Z,93.03
2022-09-30T05:02:44.103Z,93.35
2022-09-30T05:05:11.767Z,93.86
2022-09-30T05:07:39.266Z,94.08
2022-09-30T05:10:08.427Z,94.04
2022-09-30T05:12:36.489Z,94.22
2022-09-30T05:15:04.630Z,94.50
2022-09-30T05:17:33.669Z,94.52
2022-09-30T05:20:01.823Z,94.21
2022-09-30T05:22:29.355Z,94.23
2022-09-30T05:24:57.055Z,94.46
2022-09-30T05:27:25.304Z,94.30
2022-09-30T05:29:52.814Z,94.33
2022-09-30T05:32:21.266Z,94.52
2022-09-30T05:34:50.302Z,94.62
2022-09-30T05:37:17.790Z,94.51
2022-09-30T05:39:45.353Z,94.83
2022-09-30T05:42:14.139Z,94.82
2022-09-30T05:44:41.795Z,95.33
2022-09-30T05:47:11.507Z,95.17
2022-09-30T05:49:40.142Z,95.07
2022-09-30T05:52:09.013Z,94.92
2022-09-30T05:54:36.516Z,94.49
2022-09-30T05:57:05.265Z,95.29
2022-09-30T05:59:32.781Z,95.17
2022-09-30T06:02:00.435Z,93.92
2022-09-30T06:04:27.989Z,94.13
2022-09-30T06:06:55.717Z,93.78
2022-09-30T06:09:24.921Z,94.38
2022-09-30T06:11:53.018Z,94.46
2022-09-30T06:14:22.530Z,94.30
2022-09-30T06:16:50.159Z,92.94
2022-09-30T06:19:17.823Z,93.34
2022-09-30T06:21:45.467Z,93.43
2022-09-30T06:24:14.671Z,92.13
2022-09-30T06:27:11.934Z,93.00
2022-09-30T06:29:39.668Z,92.05
2022-09-30T06:32:07.659Z,92.32
2022-09-30T06:34:35.276Z,93.32
2022-09-30T06:37:02.753Z,92.35
2022-09-30T06:39:30.250Z,93.43
2022-09-30T06:41:59.081Z,92.33
2022-09-30T06:44:26.618Z,91.96
2022-09-30T06:46:54.565Z,91.08
2022-09-30T06:49:22.386Z,91.17
2022-09-30T06:51:51.467Z,91.92
2022-09-30T06:54:21.011Z,90.44
2022-09-30T06:56:48.786Z,91.25
2022-09-30T06:59:17.814Z,91.41
2022-09-30T07:01:46.278Z,90.38
2022-09-30T07:04:13.993Z,90.23
2022-09-30T07:06:41.797Z,90.06
2022-09-30T07:09:10.704Z,90.21
2022-09-30T07:11:38.439Z,90.01
2022-09-30T07:14:06.523Z,89.57
2022-09-30T07:16:35.813Z,89.06
2022-09-30T07:19:03.673Z,90.40
2022-09-30T07:21:31.774Z,91.09
2022-09-30T07:24:00.110Z,92.26
2022-09-30T07:26:28.315Z,91.52
2022-09-30T07:28:55.888Z,91.80
2022-09-30T07:31:33.119Z,90.24
2022-09-30T07:34:03.398Z,89.41
2022-09-30T07:36:33.509Z,88.21
2022-09-30T07:39:05.482Z,88.12
2022-09-30T07:41:35.690Z,88.63
2022-09-30T07:44:03.323Z,88.28
2022-09-30T07:46:33.248Z,88.81
2022-09-30T07:49:03.946Z,89.77
2022-09-30T07:51:35.797Z,89.00
2022-09-30T07:54:05.944Z,89.35
2022-09-30T07:56:57.836Z,90.15
2022-09-30T07:59:22.506Z,91.29
2022-09-30T08:01:50.799Z,91.19
2022-09-30T08:04:19.658Z,91.58
2022-09-30T08:06:50.524Z,91.89
2022-09-30T08:09:20.167Z,91.89
2022-09-30T08:11:47.980Z,91.20
2022-09-30T08:14:17.240Z,90.49
2022-09-30T08:16:45.288Z,90.78
2022-09-30T08:19:15.861Z,90.76
2022-09-30T08:21:43.965Z,90.57
2022-09-30T08:24:13.412Z,89.93
2022-09-30T08:26:41.314Z,88.66
2022-09-30T08:29:12.353Z,88.76
2022-09-30T08:31:42.309Z,87.95
2022-09-30T08:34:10.154Z,86.87
2022-09-30T08:36:37.660Z,85.34
2022-09-30T08:39:05.870Z,85.11
2022-09-30T08:41:45.286Z,84.46
2022-09-30T08:44:25.469Z,84.31
2022-09-30T08:46:58.473Z,84.19
2022-09-30T08:49:38.496Z,83.77
2022-09-30T08:52:15.999Z,83.75
2022-09-30T08:54:53.892Z,84.60
2022-09-30T08:57:23.349Z,83.49
2022-09-30T08:59:53.960Z,84.07
2022-09-30T09:02:24.311Z,82.12
2022-09-30T09:04:52.719Z,83.00
2022-09-30T09:07:36.893Z,83.21
2022-09-30T09:10:15.245Z,83.37
2022-09-30T09:12:49.489Z,82.83
2022-09-30T09:15:31.810Z,82.96
2022-09-30T09:18:31.504Z,82.12
2022-09-30T09:21:00.721Z,82.78
2022-09-30T09:23:29.109Z,81.81
2022-09-30T09:25:56.636Z,81.15
2022-09-30T09:28:30.742Z,80.88
2022-09-30T09:30:59.911Z,80.58
2022-09-30T09:33:30.519Z,80.46
2022-09-30T09:36:08.656Z,80.46
2022-09-30T09:38:41.675Z,80.08
2022-09-30T09:41:18.402Z,78.75
2022-09-30T09:43:53.790Z,79.18
2022-09-30T09:46:26.203Z,79.77
2022-09-30T09:49:30.920Z,80.26
2022-09-30T09:52:12.357Z,79.69
2022-09-30T09:54:42.176Z,79.09
2022-09-30T09:57:10.814Z,78.96
2022-09-30T09:59:56.143Z,79.35
2022-09-30T10:02:25.049Z,78.27
2022-09-30T10:04:59.880Z,77.41
2022-09-30T10:07:29.927Z,76.77
2022-09-30T10:10:09.160Z,75.87
2022-09-30T10:12:36.820Z,75.39
2022-09-30T10:15:19.193Z,75.79
2022-09-30T10:17:51.907Z,76.14
2022-09-30T10:20:25.044Z,74.52
2022-09-30T10:23:02.018Z,73.92
2022-09-30T10:25:30.872Z,73.91
2022-09-30T10:28:00.130Z,73.55
2022-09-30T10:30:41.986Z,73.61
2022-09-30T10:33:20.336Z,73.72
2022-09-30T10:36:02.584Z,74.79
2022-09-30T10:38:32.047Z,72.91
2022-09-30T10:41:00.161Z,72.32
2022-09-30T10:43:31.461Z,72.02
2022-09-30T10:46:24.573Z,71.59
2022-09-30T10:48:53.760Z,70.60
2022-09-30T10:51:25.925Z,70.16
2022-09-30T10:53:53.695Z,68.56
2022-09-30T10:56:42.142Z,66.89
2022-09-30T10:59:19.739Z,68.41
2022-09-30T11:01:53.697Z,69.31
2022-09-30T11:04:28.423Z,68.81
2022-09-30T11:07:02.198Z,69.72
2022-09-30T11:09:35.717Z,66.72
2022-09-30T11:12:10.220Z,65.52
2022-09-30T11:14:41.719Z,66.43
2022-09-30T11:17:23.615Z,65.79
2022-09-30T11:19:55.286Z,64.83
2022-09-30T11:22:31.179Z,65.92
2022-09-30T11:24:58.856Z,65.96
2022-09-30T11:27:35.612Z,65.57
2022-09-30T11:30:08.839Z,65.09
2022-09-30T11:32:50.413Z,62.98
2022-09-30T11:35:29.543Z,60.87
2022-09-30T11:38:17.457Z,59.65
2022-09-30T11:40:50.644Z,60.56
2022-09-30T11:43:26.347Z,55.78
2022-09-30T11:46:19.302Z,57.04
2022-09-30T11:48:58.248Z,57.87
2022-09-30T11:51:32.694Z,55.56
2022-09-30T11:54:12.270Z,57.17
2022-09-30T11:56:45.653Z,56.45
2022-09-30T11:59:16.726Z,55.44
2022-09-30T12:01:47.282Z,55.53
2022-09-30T12:04:19.397Z,55.85
2022-09-30T12:06:52.634Z,56.73
2022-09-30T12:09:24.630Z,56.95
2022-09-30T12:11:57.178Z,56.81
2022-09-30T12:14:30.626Z,57.23
2022-09-30T12:16:59.791Z,57.44
2022-09-30T12:19:32.290Z,57.37
2022-09-30T12:22:05.557Z,56.37
2022-09-30T12:24:37.208Z,54.86
2022-09-30T12:27:05.411Z,55.12
2022-09-30T12:29:53.865Z,55.52
2022-09-30T12:32:43.524Z,54.65
2022-09-30T12:35:29.396Z,55.31
2022-09-30T12:38:11.609Z,53.28
2022-09-30T12:40:58.384Z,54.17
2022-09-30T12:43:48.214Z,54.91
2022-09-30T12:46:18.135Z,58.62
2022-09-30T12:48:47.938Z,56.99
2022-09-30T12:51:27.208Z,55.51
2022-09-30T12:54:00.439Z,58.05
2022-09-30T12:56:30.372Z,57.38
2022-09-30T12:59:01.330Z,57.06
2022-09-30T13:01:30.277Z,58.73
2022-09-30T13:04:18.656Z,59.69
2022-09-30T13:07:14.912Z,59.44
2022-09-30T13:09:58.780Z,59.94
2022-09-30T13:12:28.300Z,58.36
2022-09-30T13:15:27.916Z,58.10
2022-09-30T13:17:55.556Z,57.14
2022-09-30T13:20:50.622Z,56.11
2022-09-30T13:23:37.861Z,55.35
2022-09-30T13:26:07.109Z,55.51
2022-09-30T13:28:39.095Z,55.27
2022-09-30T13:31:15.553Z,56.42
2022-09-30T13:33:48.299Z,56.58
2022-09-30T13:36:20.321Z,55.25
2022-09-30T13:39:07.690Z,52.09
2022-09-30T13:41:37.496Z,55.46
2022-09-30T13:44:10.082Z,54.40
2022-09-30T13:46:43.248Z,54.14
2022-09-30T13:49:14.947Z,54.67
2022-09-30T13:51:42.657Z,54.02
2022-09-30T13:54:15.547Z,52.66
2022-09-30T13:56:44.079Z,53.50
2022-09-30T13:59:21.764Z,54.11
2022-09-30T14:02:04.920Z,52.03
2022-09-30T14:04:47.319Z,52.81
2022-09-30T14:07:18.902Z,51.09
2022-09-30T14:09:58.996Z,53.81
2022-09-30T14:12:37.309Z,52.64
2022-09-30T14:15:25.716Z,53.30
2022-09-30T14:18:07.480Z,53.96
2022-09-30T14:20:43.859Z,54.29
2022-09-30T14:23:15.458Z,53.37
2022-09-30T14:25:52.305Z,53.97
2022-09-30T14:28:24.669Z,53.51
2022-09-30T14:31:10.077Z,55.46
2022-09-30T14:33:39.518Z,54.50
2022-09-30T14:36:13.781Z,54.45
2022-09-30T14:38:44.471Z,53.65
2022-09-30T14:41:18.314Z,53.00
2022-09-30T14:43:47.125Z,53.33
2022-09-30T14:46:24.952Z,53.47
2022-09-30T14:48:52.980Z,53.41
2022-09-30T14:51:23.683Z,53.05
2022-09-30T14:53:56.075Z,53.37
2022-09-30T14:56:30.571Z,53.94
2022-09-30T14:58:59.696Z,54.24
2022-09-30T15:01:30.786Z,54.13
2022-09-30T15:04:00.833Z,55.08
2022-09-30T15:06:30.498Z,54.13
2022-09-30T15:09:03.271Z,54.74
2022-09-30T15:11:37.203Z,55.16
2022-09-30T15:14:09.915Z,54.25
2022-09-30T15:16:46.947Z,54.43
2022-09-30T15:19:19.314Z,55.14
2022-09-30T15:21:49.030Z,53.31
2022-09-30T15:24:18.232Z,53.80
2022-09-30T15:26:49.096Z,53.22
2022-09-30T15:29:17.666Z,54.29
2022-09-30T15:31:47.143Z,54.33
2022-09-30T15:34:20.469Z,53.90
2022-09-30T15:37:04.481Z,56.20
2022-09-30T15:39:47.556Z,57.02
2022-09-30T15:42:30.234Z,56.24
2022-09-30T15:44:59.533Z,56.99
2022-09-30T15:47:27.649Z,57.07
2022-09-30T15:49:55.428Z,57.59
2022-09-30T15:52:33.405Z,57.67
2022-09-30T15:55:01.084Z,56.91
2022-09-30T15:57:47.757Z,58.17
2022-09-30T16:00:38.311Z,59.81
2022-09-30T16:03:32.973Z,59.40
2022-09-30T16:06:08.682Z,59.73
2022-09-30T16:08:42.881Z,59.38
2022-09-30T16:11:10.645Z,60.20
2022-09-30T16:13:43.569Z,61.10
2022-09-30T16:16:19.621Z,59.75
2022-09-30T16:18:47.402Z,59.48
2022-09-30T16:21:30.440Z,59.84
2022-09-30T16:23:58.072Z,59.63
2022-09-30T16:26:30.761Z,61.03
2022-09-30T16:29:05.838Z,62.13
2022-09-30T16:31:36.074Z,61.61
2022-09-30T16:34:03.768Z,62.13
2022-09-30T16:36:31.787Z,61.89
2022-09-30T16:38:59.614Z,62.90
2022-09-30T16:41:27.225Z,63.19
2022-09-30T16:43:54.782Z,63.52
2022-09-30T16:46:23.797Z,62.89
2022-09-30T16:48:51.347Z,63.43
2022-09-30T16:51:19.079Z,63.64
2022-09-30T16:53:47.841Z,63.55
2022-09-30T16:56:17.118Z,64.11
2022-09-30T16:58:45.149Z,64.53
2022-09-30T17:01:18.315Z,64.83
2022-09-30T17:03:47.485Z,66.30
2022-09-30T17:06:15.171Z,66.42
2022-09-30T17:08:42.745Z,67.12
2022-09-30T17:11:10.999Z,67.13
2022-09-30T17:13:38.654Z,67.95
2022-09-30T17:16:06.668Z,69.32
2022-09-30T17:18:34.412Z,69.24
2022-09-30T17:21:03.433Z,69.16
2022-09-30T17:23:31.012Z,69.74
2022-09-30T17:25:58.643Z,71.14
2022-09-30T17:28:26.493Z,71.98
2022-09-30T17:30:54.747Z,72.28
2022-09-30T17:33:22.529Z,72.42
2022-09-30T17:36:00.160Z,73.07
2022-09-30T17:38:29.868Z,73.37
2022-09-30T17:41:15.150Z,73.83
2022-09-30T17:43:42.789Z,74.38
2022-09-30T17:46:10.415Z,74.27
2022-09-30T17:48:39.345Z,74.51
2022-09-30T17:51:09.522Z,74.46
2022-09-30T17:53:39.746Z,76.04
2022-09-30T17:56:10.165Z,76.89
2022-09-30T17:58:38.128Z,77.70
2022-09-30T18:01:07.793Z,77.60
2022-09-30T18:03:35.716Z,77.99
2022-09-30T18:06:03.484Z,77.93
2022-09-30T18:08:31.125Z,77.48
2022-09-30T18:11:00.015Z,78.80
2022-09-30T18:13:28.518Z,79.68
2022-09-30T18:15:59.568Z,79.51
2022-09-30T18:18:27.263Z,79.22
2022-09-30T18:20:54.825Z,80.26
2022-09-30T18:23:22.456Z,79.89
2022-09-30T18:25:54.309Z,79.81
2022-09-30T18:28:23.426Z,80.00
2022-09-30T18:30:51.055Z,79.69
2022-09-30T18:33:21.340Z,79.32
2022-09-30T18:35:51.437Z,79.49
2022-09-30T18:38:19.556Z,79.69
2022-09-30T18:40:47.143Z,81.01
2022-09-30T18:43:15.169Z,80.37
2022-09-30T18:45:44.257Z,80.51
2022-09-30T18:48:11.982Z,80.37
2022-09-30T18:50:39.638Z,81.61
2022-09-30T18:53:09.934Z,80.52
2022-09-30T18:55:38.254Z,81.33
2022-09-30T18:58:06.343Z,82.52
2022-09-30T19:00:34.094Z,81.34
2022-09-30T19:03:03.111Z,81.96
2022-09-30T19:05:30.790Z,81.59
2022-09-30T19:07:59.304Z,81.22
2022-09-30T19:10:26.850Z,81.19
2022-09-30T19:12:54.452Z,81.32
2022-09-30T19:15:23.471Z,81.68
2022-09-30T19:17:53.648Z,81.54
2022-09-30T19:20:22.981Z,81.74
2022-09-30T19:22:51.881Z,82.11
2022-09-30T19:25:19.614Z,82.45
2022-09-30T19:27:49.422Z,83.40
2022-09-30T19:30:17.065Z,82.95
2022-09-30T19:32:44.688Z,83.64
2022-09-30T19:35:13.569Z,82.89
2022-09-30T19:37:55.623Z,82.71
2022-09-30T19:40:25.290Z,83.34
2022-09-30T19:42:52.888Z,84.39
2022-09-30T19:45:25.921Z,84.07
2022-09-30T19:47:53.952Z,84.50
2022-09-30T19:50:21.550Z,84.30
2022-09-30T19:52:56.766Z,84.67
2022-09-30T19:55:25.580Z,84.38
2022-09-30T19:57:53.239Z,84.19
2022-09-30T20:00:20.820Z,84.63
2022-09-30T20:02:48.527Z,85.28
2022-09-30T20:05:18.261Z,85.39
2022-09-30T20:07:45.808Z,85.14
2022-09-30T20:10:14.819Z,85.35
2022-09-30T20:12:43.506Z,85.51
2022-09-30T20:15:29.333Z,85.57
2022-09-30T20:17:56.996Z,85.07
2022-09-30T20:20:37.080Z,85.74
2022-09-30T20:23:04.871Z,85.64
2022-09-30T20:25:35.125Z,85.06
2022-09-30T20:28:03.979Z,84.95
2022-09-30T20:30:32.007Z,85.39
2022-09-30T20:32:59.814Z,84.86
2022-09-30T20:35:27.459Z,83.92
2022-09-30T20:37:55.072Z,83.92
2022-09-30T20:40:23.177Z,82.89
2022-09-30T20:42:52.725Z,83.19
2022-09-30T20:45:20.348Z,83.27
2022-09-30T20:47:47.983Z,84.03
2022-09-30T20:50:34.742Z,84.79
2022-09-30T20:53:03.841Z,85.36
2022-09-30T20:55:31.463Z,85.54
2022-09-30T20:58:00.426Z,85.13
2022-09-30T21:00:28.224Z,84.56
2022-09-30T21:02:57.182Z,84.16
2022-09-30T21:05:24.822Z,84.73
2022-09-30T21:07:53.158Z,85.36
2022-09-30T21:10:21.307Z,85.41
2022-09-30T21:12:49.847Z,85.19
2022-09-30T21:15:19.089Z,84.66
2022-09-30T21:17:46.799Z,84.74
2022-09-30T21:20:14.569Z,83.94
2022-09-30T21:22:42.870Z,83.65
2022-09-30T21:25:13.009Z,84.46
2022-09-30T21:27:41.056Z,84.46
2022-09-30T21:30:10.855Z,83.16
2022-09-30T21:32:42.943Z,84.37
2022-09-30T21:35:10.801Z,83.64
2022-09-30T21:37:38.713Z,83.80
2022-09-30T21:40:07.112Z,84.40
2022-09-30T21:42:53.747Z,84.47
2022-09-30T21:45:34.569Z,84.54
2022-09-30T21:48:34.503Z,84.60
2022-09-30T21:51:07.805Z,84.40
2022-09-30T21:53:46.950Z,84.32
2022-09-30T21:56:14.720Z,84.60
2022-09-30T21:58:42.358Z,84.39
2022-09-30T22:01:11.166Z,84.85
2022-09-30T22:03:40.173Z,84.88
2022-09-30T22:06:09.156Z,84.97
2022-09-30T22:08:39.945Z,85.53
2022-09-30T22:11:13.474Z,86.05
2022-09-30T22:13:43.677Z,85.88
2022-09-30T22:16:11.527Z,86.20
2022-09-30T22:18:40.513Z,86.77
2022-09-30T22:21:10.638Z,86.74
2022-09-30T22:23:38.427Z,87.25
2022-09-30T22:26:11.101Z,87.62
2022-09-30T22:28:41.616Z,87.49
2022-09-30T22:31:13.777Z,87.34
2022-09-30T22:34:00.632Z,87.24
2022-09-30T22:36:47.993Z,87.68
2022-09-30T22:39:15.610Z,88.25
2022-09-30T22:41:43.387Z,88.48
2022-09-30T22:44:11.054Z,88.75
2022-09-30T22:46:39.389Z,88.45
2022-09-30T22:49:08.336Z,88.88
2022-09-30T22:51:36.362Z,88.81
2022-09-30T22:54:20.206Z,88.32
2022-09-30T22:56:50.352Z,88.19
2022-09-30T22:59:18.690Z,88.40
2022-09-30T23:01:46.763Z,88.31
2022-09-30T23:04:26.545Z,88.58
2022-09-30T23:06:55.699Z,89.04
2022-09-30T23:09:23.615Z,89.54
2022-09-30T23:11:53.567Z,89.47
2022-09-30T23:14:21.446Z,89.08
2022-09-30T23:16:49.500Z,89.35
2022-09-30T23:19:18.473Z,89.26
2022-09-30T23:21:45.994Z,88.18
2022-09-30T23:24:13.515Z,88.91
2022-09-30T23:26:41.201Z,89.16
2022-09-30T23:29:12.084Z,89.33
2022-09-30T23:31:39.907Z,89.67
2022-09-30T23:34:07.657Z,89.19
2022-09-30T23:36:37.764Z,89.14
2022-09-30T23:39:08.130Z,88.42
2022-09-30T23:41:36.028Z,88.54
2022-09-30T23:44:04.388Z,89.06
2022-09-30T23:46:32.003Z,89.01
2022-09-30T23:48:59.781Z,88.91
2022-09-30T23:51:27.290Z,89.02
2022-09-30T23:53:56.173Z,90.19
2022-09-30T23:56:23.942Z,89.41
2022-09-30T23:58:51.467Z,89.13
